Time;durP1;ratioP1;P1;durP2;ratioP2;P2;SDS_P1;SDS_P2;PMS_P1;PMS_P2;Temp;Humidity;BMP_temperature;BMP_pressure;BME280_temperature;BME280_humidity;BME280_pressure;Samples;Min_cycle;Max_cycle;Signal;HPM_P1;HPM_P2
2021/12/31 08:13:46;;;;;;;4.40;2.77;;;7.00;90.20;;;;;;5085575;27;20282;-74
2021/12/31 08:16:12;;;;;;;2.63;2.27;;;7.10;90.40;;;;;;5076569;28;20201;-71
2021/12/31 08:18:37;;;;;;;3.23;2.73;;;7.20;90.30;;;;;;5072576;28;20185;-73
2021/12/31 08:21:03;;;;;;;3.87;2.83;;;7.30;90.00;;;;;;5071234;28;20218;-73
2021/12/31 08:23:29;;;;;;;5.03;2.67;;;7.40;89.30;;;;;;5075974;28;20182;-72
2021/12/31 08:25:54;;;;;;;3.90;2.63;;;7.60;88.70;;;;;;5073508;28;20742;-72
2021/12/31 08:28:20;;;;;;;4.13;3.57;;;7.80;88.10;;;;;;5075375;28;20182;-73
2021/12/31 08:30:46;;;;;;;4.97;2.67;;;7.90;87.80;;;;;;5073757;28;20374;-73
2021/12/31 08:33:12;;;;;;;2.97;2.77;;;8.20;87.50;;;;;;5084730;28;20262;-73
2021/12/31 08:35:38;;;;;;;3.10;2.80;;;8.40;86.50;;;;;;5084726;28;20746;-73
2021/12/31 08:38:03;;;;;;;3.27;3.07;;;8.70;85.60;;;;;;5079876;28;20182;-73
2021/12/31 08:41:15;;;;;;;2.80;2.47;;;9.30;84.90;;;;;;5079915;28;20178;-75
2021/12/31 08:43:41;;;;;;;3.07;2.87;;;9.40;85.40;;;;;;5049238;28;20255;-75
2021/12/31 08:46:07;;;;;;;3.17;2.90;;;10.10;85.60;;;;;;5047237;28;20309;-75
2021/12/31 08:48:32;;;;;;;3.38;3.08;;;10.80;84.60;;;;;;5046846;28;20336;-74
2021/12/31 08:50:58;;;;;;;3.78;3.47;;;11.60;85.20;;;;;;5049354;28;20221;-71
2021/12/31 08:53:24;;;;;;;2.92;2.72;;;12.40;84.30;;;;;;5049349;28;20302;-74
2021/12/31 08:55:49;;;;;;;3.58;3.03;;;13.30;82.10;;;;;;5048156;28;20187;-74
2021/12/31 08:58:15;;;;;;;3.40;3.10;;;14.10;80.80;;;;;;5048763;28;20200;-74
2021/12/31 09:00:41;;;;;;;3.60;3.30;;;15.00;78.80;;;;;;5050268;28;20199;-74
2021/12/31 09:03:07;;;;;;;4.03;3.25;;;15.70;78.00;;;;;;5047227;28;20187;-74
2021/12/31 09:05:33;;;;;;;6.55;3.28;;;16.50;75.60;;;;;;5047308;28;20198;-74
2021/12/31 09:07:59;;;;;;;7.07;4.03;;;17.10;74.10;;;;;;5033024;28;21232;-74
2021/12/31 09:10:25;;;;;;;4.45;4.00;;;17.70;70.20;;;;;;5035627;28;20569;-74
2021/12/31 09:12:51;;;;;;;4.10;3.67;;;18.20;69.70;;;;;;5050950;28;20291;-74
2021/12/31 09:15:17;;;;;;;3.72;3.42;;;18.70;67.60;;;;;;5051905;28;20787;-74
2021/12/31 09:17:44;;;;;;;4.43;3.80;;;19.20;66.60;;;;;;5052570;28;20194;-75
2021/12/31 09:20:10;;;;;;;5.20;4.30;;;19.70;66.20;;;;;;5057271;28;20224;-75
2021/12/31 09:22:36;;;;;;;6.03;4.53;;;20.10;64.80;;;;;;5078602;28;20653;-75
2021/12/31 09:25:03;;;;;;;5.78;4.93;;;20.60;63.40;;;;;;5068665;28;20189;-74
2021/12/31 09:27:29;;;;;;;4.93;4.47;;;20.80;62.00;;;;;;5067238;28;20175;-74
2021/12/31 09:29:56;;;;;;;5.95;5.20;;;20.80;61.20;;;;;;5066684;28;20254;-72
2021/12/31 09:32:22;;;;;;;5.68;5.18;;;20.90;60.10;;;;;;5067064;28;20292;-72
2021/12/31 09:34:48;;;;;;;6.10;5.50;;;20.90;60.60;;;;;;5067261;28;20265;-76
2021/12/31 09:37:15;;;;;;;8.07;5.68;;;20.90;59.70;;;;;;5060873;28;20259;-76
2021/12/31 09:39:41;;;;;;;5.97;5.30;;;21.10;60.60;;;;;;5065745;28;20790;-76
2021/12/31 09:42:08;;;;;;;7.35;5.90;;;21.40;60.30;;;;;;5066815;28;20189;-76
2021/12/31 09:44:35;;;;;;;6.30;5.68;;;21.50;59.80;;;;;;5069797;28;20682;-75
2021/12/31 09:47:10;;;;;;;7.25;6.05;;;21.40;60.00;;;;;;5069588;28;20206;-74
2021/12/31 09:49:37;;;;;;;7.88;5.32;;;21.20;59.40;;;;;;5085024;28;20915;-74
2021/12/31 09:52:04;;;;;;;5.65;5.07;;;21.10;59.60;;;;;;5058694;28;20271;-74
2021/12/31 09:54:30;;;;;;;9.65;6.05;;;21.20;60.40;;;;;;5062706;28;20178;-74
2021/12/31 09:56:56;;;;;;;5.43;5.03;;;21.50;58.80;;;;;;5069621;28;20178;-74
2021/12/31 09:59:24;;;;;;;9.25;5.00;;;21.70;60.40;;;;;;5069535;28;20261;-75
2021/12/31 10:01:52;;;;;;;8.25;5.95;;;22.10;59.80;;;;;;5068538;28;20217;-76
2021/12/31 10:04:19;;;;;;;5.78;5.28;;;22.60;59.80;;;;;;5070511;28;20175;-76
2021/12/31 10:07:05;;;;;;;5.90;5.40;;;23.10;59.20;;;;;;5073246;28;20206;-75
2021/12/31 10:09:31;;;;;;;5.60;4.93;;;23.60;57.80;;;;;;5063070;28;20210;-72
2021/12/31 10:11:57;;;;;;;5.40;4.95;;;24.00;56.80;;;;;;5065290;28;20182;-75
2021/12/31 10:14:38;;;;;;;5.00;4.55;;;24.20;55.60;;;;;;5060585;28;20179;-76
2021/12/31 10:17:08;;;;;;;7.20;4.40;;;24.40;56.60;;;;;;5063783;28;20311;-75
2021/12/31 10:19:34;;;;;;;4.45;4.15;;;24.50;54.10;;;;;;5069025;28;20198;-75
2021/12/31 10:22:01;;;;;;;4.85;4.50;;;24.60;54.80;;;;;;5065266;28;20206;-75
2021/12/31 10:24:38;;;;;;;4.40;4.15;;;24.50;55.30;;;;;;5062624;28;20283;-75
2021/12/31 10:27:09;;;;;;;4.70;4.30;;;24.20;54.30;;;;;;5073865;28;20181;-74
2021/12/31 10:29:52;;;;;;;4.85;4.30;;;23.80;55.90;;;;;;5066671;28;20187;-77
2021/12/31 10:32:18;;;;;;;4.55;3.85;;;23.40;54.10;;;;;;5068875;28;20194;-76
2021/12/31 10:34:44;;;;;;;4.05;3.85;;;23.00;54.70;;;;;;5060494;28;20653;-76
2021/12/31 10:37:23;;;;;;;3.65;3.47;;;22.70;56.80;;;;;;5065583;28;20204;-75
2021/12/31 10:40:00;;;;;;;4.40;3.58;;;22.40;57.00;;;;;;5066684;28;20877;-76
2021/12/31 10:42:34;;;;;;;3.88;3.58;;;22.10;56.70;;;;;;5068207;28;20210;-76
2021/12/31 10:45:02;;;;;;;3.85;3.55;;;21.70;56.80;;;;;;5062629;28;20607;-76
2021/12/31 10:47:42;;;;;;;3.55;3.25;;;21.30;58.30;;;;;;5062788;28;20186;-75
2021/12/31 10:50:18;;;;;;;4.25;3.75;;;21.10;57.60;;;;;;5065765;28;20183;-75
2021/12/31 10:53:00;;;;;;;3.72;3.50;;;20.90;59.50;;;;;;5071371;28;20689;-75
2021/12/31 10:55:30;;;;;;;4.05;3.78;;;20.70;58.10;;;;;;5072364;28;20281;-74
2021/12/31 10:58:04;;;;;;;3.85;3.65;;;20.60;59.00;;;;;;5071729;28;20206;-75
2021/12/31 11:00:41;;;;;;;4.15;3.75;;;20.20;59.60;;;;;;5067232;28;20243;-74
2021/12/31 11:03:08;;;;;;;4.80;4.25;;;19.80;60.50;;;;;;5067356;28;20211;-76
2021/12/31 11:05:34;;;;;;;3.92;3.63;;;19.50;61.10;;;;;;5068712;28;20187;-75
2021/12/31 11:08:02;;;;;;;4.03;3.83;;;19.20;60.90;;;;;;5071570;28;20175;-76
2021/12/31 11:10:36;;;;;;;4.43;4.07;;;18.80;61.20;;;;;;5068299;28;20274;-75
2021/12/31 11:13:18;;;;;;;5.50;3.88;;;18.40;62.30;;;;;;5067250;28;20252;-77
2021/12/31 11:15:45;;;;;;;4.38;3.33;;;18.10;61.40;;;;;;5058942;28;20182;-75
2021/12/31 11:18:12;;;;;;;3.95;3.45;;;17.70;63.90;;;;;;5073204;28;20182;-76
2021/12/31 11:20:39;;;;;;;4.57;4.18;;;17.40;62.90;;;;;;5068606;28;20683;-75
2021/12/31 11:23:05;;;;;;;4.65;3.90;;;17.00;64.70;;;;;;5070434;28;20210;-76
2021/12/31 11:25:32;;;;;;;4.53;3.97;;;16.70;64.90;;;;;;5070470;28;20269;-76
2021/12/31 11:27:59;;;;;;;5.00;4.60;;;16.40;64.70;;;;;;5067424;28;20189;-73
2021/12/31 11:30:39;;;;;;;4.07;3.55;;;16.10;65.20;;;;;;5067937;28;20202;-74
2021/12/31 11:33:09;;;;;;;10.45;4.65;;;15.70;66.20;;;;;;5067225;28;20205;-75
2021/12/31 11:35:39;;;;;;;4.35;3.95;;;15.30;67.00;;;;;;5062511;28;20190;-76
2021/12/31 11:38:23;;;;;;;4.85;4.55;;;15.00;68.10;;;;;;5054424;28;20182;-77
2021/12/31 11:41:28;;;;;;;6.05;5.10;;;14.70;68.40;;;;;;5059188;28;20183;-73
2021/12/31 11:44:11;;;;;;;4.57;3.85;;;14.30;68.80;;;;;;5055274;28;20195;-73
2021/12/31 11:46:40;;;;;;;3.90;3.65;;;13.90;69.40;;;;;;5069893;28;20241;-76
2021/12/31 11:49:12;;;;;;;4.80;3.78;;;13.60;70.60;;;;;;5067813;28;20181;-76
2021/12/31 11:51:56;;;;;;;3.58;3.30;;;13.40;71.30;;;;;;5068109;28;20578;-78
2021/12/31 11:54:26;;;;;;;3.95;3.53;;;13.20;71.00;;;;;;5069991;28;20179;-78
2021/12/31 11:56:53;;;;;;;4.63;3.78;;;13.00;71.40;;;;;;5070485;28;20723;-77
2021/12/31 11:59:21;;;;;;;3.80;3.60;;;12.80;72.80;;;;;;5070485;28;20171;-77
2021/12/31 12:02:13;;;;;;;3.17;2.97;;;12.60;73.00;;;;;;5069512;28;20203;-79
2021/12/31 12:04:41;;;;;;;2.70;2.50;;;12.40;74.00;;;;;;5071155;28;20187;-79
2021/12/31 12:07:10;;;;;;;2.45;2.35;;;12.30;74.00;;;;;;5071349;28;20689;-78
2021/12/31 12:09:35;;;;;;;2.60;2.38;;;12.20;74.90;;;;;;5066230;28;20265;-77
2021/12/31 12:12:08;;;;;;;3.20;2.95;;;12.00;75.10;;;;;;5077828;28;20305;-78
2021/12/31 12:14:40;;;;;;;3.28;2.95;;;11.90;75.80;;;;;;5067701;28;20259;-78
2021/12/31 12:17:17;;;;;;;6.82;2.35;;;11.70;76.50;;;;;;5076240;28;20179;-77
2021/12/31 12:19:51;;;;;;;3.05;2.42;;;11.60;76.90;;;;;;5071098;28;20180;-78
2021/12/31 12:22:33;;;;;;;2.55;2.22;;;11.50;77.90;;;;;;5070929;28;20214;-77
2021/12/31 12:25:00;;;;;;;2.03;1.67;;;11.50;77.80;;;;;;5068306;28;20201;-77
2021/12/31 12:27:26;;;;;;;2.33;2.13;;;11.40;78.40;;;;;;5072128;28;20174;-78
2021/12/31 12:29:53;;;;;;;1.70;1.60;;;11.30;78.70;;;;;;5075139;28;20209;-80
2021/12/31 12:32:32;;;;;;;2.15;2.05;;;11.20;79.00;;;;;;5069199;28;20241;-77
2021/12/31 12:34:58;;;;;;;1.83;1.73;;;11.20;79.30;;;;;;5067497;28;20194;-78
2021/12/31 12:37:28;;;;;;;3.95;1.92;;;11.20;79.40;;;;;;5070672;28;20197;-78
2021/12/31 12:40:01;;;;;;;2.83;2.67;;;11.10;79.50;;;;;;5065902;28;20198;-78
2021/12/31 12:42:27;;;;;;;2.58;2.30;;;11.00;79.90;;;;;;5070033;28;20431;-78
2021/12/31 12:44:58;;;;;;;2.67;2.33;;;11.00;80.00;;;;;;5069075;28;20324;-78
2021/12/31 12:47:24;;;;;;;2.58;2.40;;;11.00;80.30;;;;;;5064308;28;20175;-78
2021/12/31 12:49:59;;;;;;;2.55;2.35;;;11.00;80.40;;;;;;5070868;28;20179;-78
2021/12/31 12:52:25;;;;;;;2.28;2.17;;;11.00;80.50;;;;;;5068682;28;20193;-78
2021/12/31 12:55:14;;;;;;;2.50;2.40;;;11.00;80.70;;;;;;5066895;28;20237;-78
2021/12/31 12:57:40;;;;;;;2.15;2.05;;;11.10;80.60;;;;;;5063538;28;20179;-79
2021/12/31 13:00:09;;;;;;;2.80;2.60;;;11.10;80.60;;;;;;5068111;28;20808;-78
2021/12/31 13:02:45;;;;;;;2.53;2.17;;;11.00;80.80;;;;;;5076867;28;20219;-78
2021/12/31 13:05:16;;;;;;;3.95;2.78;;;10.90;81.00;;;;;;5074357;28;20192;-78
2021/12/31 13:07:52;;;;;;;3.63;2.83;;;10.90;81.00;;;;;;5070846;28;20622;-74
2021/12/31 13:10:23;;;;;;;3.03;2.80;;;10.90;81.50;;;;;;5066798;28;20190;-76
2021/12/31 13:12:49;;;;;;;3.17;3.05;;;10.80;81.80;;;;;;5069700;28;20190;-75
2021/12/31 13:15:14;;;;;;;4.45;2.92;;;10.80;82.10;;;;;;5073035;28;20193;-74
2021/12/31 13:17:41;;;;;;;3.45;3.25;;;10.80;82.50;;;;;;5084922;28;20450;-77
2021/12/31 13:20:11;;;;;;;3.60;3.30;;;10.60;83.00;;;;;;5082076;28;20183;-75
2021/12/31 13:22:38;;;;;;;11.20;2.75;;;10.60;83.20;;;;;;5073605;28;20219;-76
2021/12/31 13:25:06;;;;;;;2.95;2.55;;;10.60;83.30;;;;;;5078565;28;20254;-76
2021/12/31 13:27:32;;;;;;;3.30;2.97;;;10.50;83.60;;;;;;5078296;28;20179;-75
2021/12/31 13:30:16;;;;;;;3.75;3.40;;;10.50;83.90;;;;;;5067720;28;20218;-74
2021/12/31 13:32:44;;;;;;;3.42;3.20;;;10.40;84.20;;;;;;5072849;28;20200;-80
2021/12/31 13:35:14;;;;;;;4.47;2.95;;;10.40;84.50;;;;;;5077316;28;20186;-72
2021/12/31 13:37:42;;;;;;;4.97;3.42;;;10.40;84.70;;;;;;5073250;28;20261;-76
2021/12/31 13:40:20;;;;;;;3.10;2.80;;;10.40;84.90;;;;;;5061244;28;20187;-76
2021/12/31 13:43:03;;;;;;;3.13;2.80;;;10.40;85.20;;;;;;5067952;28;20202;-77
2021/12/31 13:45:29;;;;;;;2.08;2.08;;;10.40;85.20;;;;;;5085346;28;20186;-76
2021/12/31 13:48:07;;;;;;;2.53;2.40;;;10.40;85.30;;;;;;5082933;28;20239;-75
2021/12/31 13:50:33;;;;;;;3.97;2.33;;;10.40;85.50;;;;;;5070330;28;20194;-76
2021/12/31 13:52:59;;;;;;;3.22;2.58;;;10.40;85.50;;;;;;5068726;28;20266;-75
2021/12/31 13:55:29;;;;;;;4.75;3.30;;;10.50;85.40;;;;;;5073654;28;20187;-76
2021/12/31 13:58:01;;;;;;;4.10;3.38;;;10.50;85.70;;;;;;5072384;28;20179;-76
2021/12/31 14:00:29;;;;;;;4.70;3.55;;;10.50;85.70;;;;;;5067414;28;20183;-78
2021/12/31 14:02:55;;;;;;;4.70;3.33;;;10.60;85.60;;;;;;5077945;28;20297;-75
2021/12/31 14:05:27;;;;;;;4.07;3.65;;;10.70;85.30;;;;;;5067719;28;20179;-77
2021/12/31 14:10:25;;;;;;;5.15;4.65;;;10.80;85.20;;;;;;5072995;28;20207;-79
2021/12/31 14:12:59;;;;;;;6.40;4.65;;;10.80;85.40;;;;;;5067637;28;20226;-80
2021/12/31 14:15:27;;;;;;;4.32;3.90;;;10.80;85.80;;;;;;5069077;28;20233;-78
2021/12/31 14:17:53;;;;;;;7.47;4.03;;;10.70;86.30;;;;;;5072325;28;20215;-78
2021/12/31 14:20:21;;;;;;;4.50;4.18;;;10.70;86.70;;;;;;5073985;28;20198;-78
2021/12/31 14:22:50;;;;;;;4.00;3.53;;;10.70;87.10;;;;;;5071731;28;20206;-78
2021/12/31 14:25:17;;;;;;;4.25;3.80;;;10.70;87.30;;;;;;5075757;28;20700;-79
2021/12/31 14:27:42;;;;;;;2.75;2.55;;;10.70;87.40;;;;;;5068597;28;20179;-78
2021/12/31 14:30:11;;;;;;;2.75;2.65;;;10.70;87.60;;;;;;5075437;28;20204;-77
2021/12/31 14:32:38;;;;;;;2.40;2.20;;;10.70;87.60;;;;;;5077043;28;20274;-79
2021/12/31 14:35:06;;;;;;;2.08;1.98;;;10.70;87.90;;;;;;5070141;28;20170;-80
2021/12/31 14:37:32;;;;;;;2.30;2.10;;;10.70;87.90;;;;;;5071773;28;20597;-80
2021/12/31 14:40:00;;;;;;;2.55;2.35;;;10.80;87.80;;;;;;5073670;28;20262;-80
2021/12/31 14:42:29;;;;;;;2.40;2.20;;;10.80;88.10;;;;;;5073119;28;20210;-78
2021/12/31 14:44:56;;;;;;;1.70;1.65;;;10.80;88.20;;;;;;5073258;28;20183;-77
2021/12/31 14:47:22;;;;;;;3.80;1.83;;;10.80;88.30;;;;;;5070904;28;20264;-79
2021/12/31 14:49:48;;;;;;;1.77;1.55;;;10.80;88.40;;;;;;5066898;28;20224;-77
2021/12/31 14:52:15;;;;;;;1.90;1.80;;;10.80;88.60;;;;;;5071158;28;20175;-78
2021/12/31 14:54:42;;;;;;;1.92;1.83;;;10.80;88.60;;;;;;5071535;28;20578;-78
2021/12/31 14:57:08;;;;;;;1.70;1.60;;;10.80;88.70;;;;;;5076794;28;20179;-78
2021/12/31 14:59:36;;;;;;;1.80;1.70;;;10.80;88.60;;;;;;5076852;28;20333;-80
2021/12/31 15:02:02;;;;;;;1.95;1.80;;;10.80;88.60;;;;;;5069173;28;20219;-75
2021/12/31 15:04:28;;;;;;;2.47;2.28;;;10.80;88.50;;;;;;5074150;28;20190;-75
2021/12/31 15:06:54;;;;;;;3.33;2.40;;;10.80;88.60;;;;;;5072921;28;20183;-75
2021/12/31 15:09:20;;;;;;;2.30;2.20;;;10.80;88.50;;;;;;5070110;28;20190;-79
2021/12/31 15:11:46;;;;;;;2.60;2.45;;;10.80;88.50;;;;;;5073156;28;20203;-79
2021/12/31 15:14:11;;;;;;;2.35;2.20;;;10.80;88.50;;;;;;5070624;28;20316;-79
2021/12/31 15:16:37;;;;;;;3.22;2.45;;;10.80;88.50;;;;;;5065626;28;20213;-80
2021/12/31 15:19:03;;;;;;;3.00;2.80;;;10.80;88.50;;;;;;5072463;28;20636;-79
2021/12/31 15:21:29;;;;;;;4.57;3.13;;;10.80;88.50;;;;;;5074286;28;20186;-78
2021/12/31 15:23:55;;;;;;;5.75;3.72;;;10.80;88.50;;;;;;5067597;28;20249;-77
2021/12/31 15:26:22;;;;;;;5.03;4.07;;;10.80;88.40;;;;;;5070156;28;20255;-77
2021/12/31 15:28:48;;;;;;;5.63;5.07;;;10.80;88.50;;;;;;5067418;28;20281;-77
2021/12/31 15:31:15;;;;;;;5.38;4.88;;;10.80;88.50;;;;;;5068703;28;20694;-79
2021/12/31 15:33:42;;;;;;;5.15;4.70;;;10.80;88.40;;;;;;5072592;28;20183;-76
2021/12/31 15:36:09;;;;;;;5.18;4.68;;;10.80;88.40;;;;;;5072298;28;20179;-78
2021/12/31 15:38:35;;;;;;;7.50;4.90;;;10.70;88.50;;;;;;5067243;28;20278;-77
2021/12/31 15:41:04;;;;;;;6.97;4.03;;;10.70;88.40;;;;;;5075084;28;20181;-76
2021/12/31 15:43:31;;;;;;;4.60;4.30;;;10.70;88.60;;;;;;5071294;28;20909;-78
2021/12/31 15:45:57;;;;;;;6.45;3.95;;;10.60;88.70;;;;;;5073269;28;20214;-78
2021/12/31 15:48:23;;;;;;;3.95;2.97;;;10.60;88.70;;;;;;5073244;28;20228;-78
2021/12/31 15:50:49;;;;;;;4.57;3.10;;;10.60;88.90;;;;;;5072076;28;20183;-78
2021/12/31 15:53:15;;;;;;;4.93;2.83;;;10.50;89.00;;;;;;5064808;28;20187;-76
2021/12/31 15:55:40;;;;;;;2.97;2.78;;;10.50;89.00;;;;;;5065518;28;20187;-74
2021/12/31 15:58:06;;;;;;;3.20;2.70;;;10.40;89.10;;;;;;5068170;28;20682;-80
2021/12/31 16:00:33;;;;;;;2.00;2.00;;;10.50;88.80;;;;;;5067324;28;20243;-77
2021/12/31 16:02:59;;;;;;;2.10;1.75;;;10.50;88.90;;;;;;5066287;28;20215;-75
2021/12/31 16:05:25;;;;;;;1.95;1.85;;;10.40;89.00;;;;;;5067298;28;20676;-75
2021/12/31 16:07:55;;;;;;;2.03;1.92;;;10.40;89.10;;;;;;5070148;28;20189;-75
2021/12/31 16:10:21;;;;;;;2.83;2.30;;;10.40;89.20;;;;;;5077748;28;20185;-77
2021/12/31 16:12:47;;;;;;;2.10;2.00;;;10.30;89.20;;;;;;5069536;28;20198;-76
2021/12/31 16:15:15;;;;;;;2.30;2.10;;;10.30;89.30;;;;;;5072685;28;20185;-77
2021/12/31 16:17:43;;;;;;;1.80;1.70;;;10.30;89.40;;;;;;5076375;28;20265;-77
2021/12/31 16:20:10;;;;;;;2.25;2.15;;;10.20;89.70;;;;;;5071463;28;20668;-79
2021/12/31 16:22:37;;;;;;;1.77;1.67;;;10.20;90.10;;;;;;5070834;28;20672;-79
2021/12/31 16:25:03;;;;;;;1.92;1.83;;;10.20;89.80;;;;;;5069184;28;20193;-80
2021/12/31 16:27:29;;;;;;;1.88;1.83;;;10.20;89.50;;;;;;5069182;28;20193;-80
2021/12/31 16:29:56;;;;;;;2.00;1.90;;;10.20;89.60;;;;;;5067326;28;20183;-81
2021/12/31 16:32:26;;;;;;;2.00;1.90;;;10.10;89.70;;;;;;5077016;28;21575;-78
2021/12/31 16:35:03;;;;;;;2.05;1.70;;;10.10;89.90;;;;;;5071790;28;20190;-77
2021/12/31 16:37:29;;;;;;;1.80;1.80;;;10.00;90.00;;;;;;5073982;28;20182;-77
2021/12/31 16:39:55;;;;;;;1.67;1.58;;;10.00;90.10;;;;;;5077365;28;20186;-79
2021/12/31 16:42:21;;;;;;;1.88;1.80;;;9.90;90.00;;;;;;5073476;28;20206;-80
2021/12/31 16:44:47;;;;;;;1.95;1.65;;;9.90;90.20;;;;;;5073147;28;20183;-78
2021/12/31 16:47:14;;;;;;;1.52;1.40;;;9.90;90.30;;;;;;5070572;28;20193;-78
2021/12/31 16:49:40;;;;;;;1.23;1.23;;;9.80;90.40;;;;;;5069286;28;20186;-77
2021/12/31 16:52:07;;;;;;;1.83;1.73;;;9.80;90.20;;;;;;5070977;28;20183;-77
2021/12/31 16:54:33;;;;;;;2.05;1.95;;;9.80;90.20;;;;;;5071800;28;20756;-77
2021/12/31 16:56:59;;;;;;;5.28;2.60;;;9.80;90.10;;;;;;5068228;28;20576;-77
2021/12/31 16:59:25;;;;;;;3.92;2.75;;;9.80;90.20;;;;;;5073110;28;20179;-76
2021/12/31 17:01:51;;;;;;;3.55;2.95;;;9.80;90.20;;;;;;5072580;28;20647;-76
2021/12/31 17:04:17;;;;;;;2.85;2.65;;;9.80;90.10;;;;;;5070085;28;20175;-75
2021/12/31 17:06:43;;;;;;;3.25;2.92;;;9.70;90.10;;;;;;5066963;28;20178;-76
2021/12/31 17:09:09;;;;;;;3.45;3.15;;;9.70;90.20;;;;;;5073457;28;20175;-76
2021/12/31 17:11:35;;;;;;;4.50;3.97;;;9.70;90.20;;;;;;5076070;28;20190;-76
2021/12/31 17:14:01;;;;;;;7.30;5.75;;;9.60;90.10;;;;;;5074745;28;20643;-77
2021/12/31 17:16:27;;;;;;;6.40;5.45;;;9.60;90.30;;;;;;5071649;28;20214;-76
2021/12/31 17:18:53;;;;;;;6.93;4.93;;;9.50;90.60;;;;;;5072265;28;20183;-77
2021/12/31 17:21:19;;;;;;;5.53;4.80;;;9.50;90.40;;;;;;5075293;28;20174;-76
2021/12/31 17:23:45;;;;;;;11.07;6.28;;;9.50;90.50;;;;;;5073081;28;20241;-76
2021/12/31 17:26:11;;;;;;;8.75;6.07;;;9.40;90.60;;;;;;5075737;28;20187;-78
2021/12/31 17:28:36;;;;;;;10.02;6.82;;;9.40;90.70;;;;;;5070476;28;20270;-77
2021/12/31 17:31:03;;;;;;;10.65;6.80;;;9.40;90.90;;;;;;5073548;28;20726;-77
2021/12/31 17:33:28;;;;;;;13.80;8.45;;;9.40;91.00;;;;;;5076400;28;20178;-77
2021/12/31 17:35:54;;;;;;;15.02;8.68;;;9.40;91.20;;;;;;5076026;28;20181;-76
2021/12/31 17:38:20;;;;;;;11.38;8.07;;;9.40;91.10;;;;;;5078231;28;20174;-77
2021/12/31 17:40:46;;;;;;;13.52;8.18;;;9.40;91.00;;;;;;5074321;28;20194;-76
2021/12/31 17:43:12;;;;;;;14.48;8.38;;;9.40;90.90;;;;;;5070340;28;20207;-76
2021/12/31 17:45:38;;;;;;;10.18;8.18;;;9.40;91.00;;;;;;5066654;28;20627;-75
2021/12/31 17:48:05;;;;;;;9.05;7.32;;;9.40;91.10;;;;;;5071567;28;20630;-75
2021/12/31 17:50:31;;;;;;;11.30;7.43;;;9.40;91.10;;;;;;5068845;28;20193;-76
2021/12/31 17:52:58;;;;;;;9.18;7.00;;;9.40;91.10;;;;;;5076293;28;20686;-75
2021/12/31 17:55:24;;;;;;;9.48;5.90;;;9.50;91.00;;;;;;5071720;28;20190;-75
2021/12/31 17:57:50;;;;;;;8.18;5.45;;;9.50;90.70;;;;;;5069111;28;20179;-75
2021/12/31 18:00:16;;;;;;;5.57;4.45;;;9.50;90.70;;;;;;5070505;28;20266;-76
2021/12/31 18:02:42;;;;;;;9.25;4.55;;;9.50;90.60;;;;;;5073497;28;20324;-75
2021/12/31 18:05:08;;;;;;;4.28;3.88;;;9.50;90.50;;;;;;5069060;28;20170;-75
2021/12/31 18:07:34;;;;;;;4.30;3.90;;;9.50;90.50;;;;;;5074414;28;20186;-76
2021/12/31 18:10:00;;;;;;;5.05;4.10;;;9.50;90.60;;;;;;5070770;28;20685;-76
2021/12/31 18:12:26;;;;;;;3.72;3.35;;;9.50;90.60;;;;;;5070827;28;20199;-75
2021/12/31 18:14:52;;;;;;;3.90;3.60;;;9.50;90.60;;;;;;5074954;28;20655;-76
2021/12/31 18:17:18;;;;;;;4.70;3.15;;;9.50;90.60;;;;;;5072307;28;20182;-76
2021/12/31 18:19:44;;;;;;;3.25;2.65;;;9.50;90.60;;;;;;5070115;28;20183;-77
2021/12/31 18:22:11;;;;;;;5.63;2.55;;;9.50;90.60;;;;;;5066268;28;20304;-78
2021/12/31 18:24:37;;;;;;;3.78;2.15;;;9.50;90.60;;;;;;5068162;28;20712;-76
2021/12/31 18:27:04;;;;;;;2.83;2.55;;;9.50;90.40;;;;;;5075700;28;20274;-77
2021/12/31 18:29:30;;;;;;;3.97;2.50;;;9.50;90.80;;;;;;5073399;28;20553;-76
2021/12/31 18:31:55;;;;;;;3.25;2.10;;;9.50;90.50;;;;;;5074471;28;20190;-79
2021/12/31 18:34:22;;;;;;;3.22;2.50;;;9.50;90.50;;;;;;5071826;28;20175;-79
2021/12/31 18:36:48;;;;;;;2.80;2.22;;;9.40;90.50;;;;;;5067919;28;20575;-79
2021/12/31 18:39:14;;;;;;;2.42;2.22;;;9.40;90.50;;;;;;5072643;28;20342;-78
2021/12/31 18:41:39;;;;;;;3.25;2.70;;;9.40;90.50;;;;;;5075471;28;20206;-78
2021/12/31 18:44:06;;;;;;;4.18;3.70;;;9.40;90.30;;;;;;5072846;28;20227;-79
2021/12/31 18:46:35;;;;;;;8.48;4.93;;;9.40;90.20;;;;;;5067717;28;20183;-78
2021/12/31 18:49:07;;;;;;;5.72;3.92;;;9.40;90.20;;;;;;5064784;28;20179;-79
2021/12/31 18:51:33;;;;;;;7.82;5.00;;;9.40;90.10;;;;;;5066880;28;20657;-79
2021/12/31 18:53:59;;;;;;;5.88;5.03;;;9.40;90.20;;;;;;5078148;28;20190;-79
2021/12/31 18:56:25;;;;;;;9.60;6.25;;;9.40;90.10;;;;;;5072985;28;20202;-77
2021/12/31 18:58:55;;;;;;;8.90;5.63;;;9.30;90.20;;;;;;5071603;28;20179;-84
2021/12/31 19:01:21;;;;;;;8.77;5.93;;;9.30;90.20;;;;;;5065197;28;20183;-78
2021/12/31 19:03:47;;;;;;;8.82;5.82;;;9.30;90.20;;;;;;5066685;28;20715;-80
2021/12/31 19:06:13;;;;;;;6.78;5.82;;;9.30;90.50;;;;;;5071736;28;20583;-80
2021/12/31 19:08:40;;;;;;;9.75;5.70;;;9.20;90.50;;;;;;5065089;28;20219;-77
2021/12/31 19:11:07;;;;;;;8.07;4.85;;;9.20;90.50;;;;;;5071978;28;20327;-79
2021/12/31 19:13:33;;;;;;;7.60;5.88;;;9.10;90.70;;;;;;5069339;28;20208;-76
2021/12/31 19:15:59;;;;;;;9.45;6.00;;;9.10;91.00;;;;;;5075866;28;20672;-78
2021/12/31 19:18:29;;;;;;;8.45;5.78;;;9.10;91.20;;;;;;5074433;28;20197;-80
2021/12/31 19:20:55;;;;;;;8.75;6.28;;;9.10;91.20;;;;;;5073944;28;20172;-77
2021/12/31 19:23:21;;;;;;;11.48;6.97;;;9.10;91.10;;;;;;5071014;28;20222;-78
2021/12/31 19:25:47;;;;;;;9.25;6.50;;;9.00;91.40;;;;;;5076089;28;20178;-77
2021/12/31 19:28:13;;;;;;;14.93;8.82;;;9.00;91.60;;;;;;5068375;28;20307;-83
2021/12/31 19:30:38;;;;;;;13.15;8.73;;;8.90;91.90;;;;;;5071250;28;20183;-79
2021/12/31 19:33:04;;;;;;;13.95;8.43;;;8.90;91.90;;;;;;5073597;28;20599;-76
2021/12/31 19:35:30;;;;;;;11.27;7.88;;;8.90;92.00;;;;;;5076559;28;20189;-76
2021/12/31 19:37:55;;;;;;;13.02;7.60;;;8.90;92.40;;;;;;5068883;28;20174;-78
2021/12/31 19:40:21;;;;;;;10.23;7.28;;;8.90;92.70;;;;;;5068418;28;20861;-77
2021/12/31 19:42:47;;;;;;;11.20;6.45;;;8.90;92.80;;;;;;5070583;28;20211;-78
2021/12/31 19:45:13;;;;;;;9.25;6.70;;;8.90;92.40;;;;;;5070392;28;20193;-80
2021/12/31 19:47:38;;;;;;;13.55;8.18;;;8.90;92.10;;;;;;5064740;28;20194;-77
2021/12/31 19:50:05;;;;;;;16.48;9.43;;;8.90;91.90;;;;;;5069975;28;20187;-78
2021/12/31 19:52:30;;;;;;;23.42;12.38;;;8.90;91.60;;;;;;5072886;28;20191;-75
2021/12/31 19:54:56;;;;;;;31.85;15.55;;;8.90;91.80;;;;;;5074229;28;20181;-79
2021/12/31 19:57:22;;;;;;;31.02;16.15;;;8.80;92.10;;;;;;5072626;28;20203;-75
2021/12/31 19:59:47;;;;;;;28.27;14.15;;;8.80;92.30;;;;;;5070897;28;20186;-75
2021/12/31 20:02:13;;;;;;;20.60;11.82;;;8.80;92.50;;;;;;5071209;28;20203;-76
2021/12/31 20:04:39;;;;;;;20.27;10.73;;;8.70;93.00;;;;;;5064763;28;20262;-76
2021/12/31 20:07:04;;;;;;;19.83;9.93;;;8.80;93.10;;;;;;5073874;28;20182;-76
2021/12/31 20:09:30;;;;;;;13.43;8.55;;;8.80;93.20;;;;;;5067348;28;20723;-76
2021/12/31 20:11:56;;;;;;;12.50;7.82;;;8.80;93.10;;;;;;5071240;28;20683;-75
2021/12/31 20:14:22;;;;;;;9.75;7.30;;;8.80;92.90;;;;;;5074196;28;20208;-76
2021/12/31 20:16:48;;;;;;;13.25;9.45;;;8.80;92.50;;;;;;5071138;28;20214;-75
2021/12/31 20:19:13;;;;;;;19.45;11.15;;;8.80;92.00;;;;;;5065591;28;20218;-75
2021/12/31 20:21:39;;;;;;;20.33;11.90;;;8.70;91.40;;;;;;5069552;28;20190;-77
2021/12/31 20:24:06;;;;;;;29.77;16.38;;;8.70;90.90;;;;;;5068784;28;20301;-76
2021/12/31 20:26:31;;;;;;;29.33;15.90;;;8.60;90.50;;;;;;5072653;28;20178;-74
2021/12/31 20:28:57;;;;;;;29.48;15.45;;;8.40;90.30;;;;;;5071649;28;20632;-76
2021/12/31 20:31:23;;;;;;;28.63;14.77;;;8.30;90.20;;;;;;5072754;28;20227;-75
2021/12/31 20:33:48;;;;;;;27.83;15.88;;;8.20;90.00;;;;;;5068296;28;20190;-75
2021/12/31 20:36:14;;;;;;;29.55;15.15;;;8.10;90.10;;;;;;5073150;28;20208;-76
2021/12/31 20:38:40;;;;;;;25.45;14.68;;;8.00;90.30;;;;;;5070343;28;20258;-76
2021/12/31 20:41:06;;;;;;;31.20;15.80;;;7.90;90.40;;;;;;5075249;28;20179;-76
2021/12/31 20:43:32;;;;;;;32.70;15.02;;;7.80;90.40;;;;;;5070165;28;20289;-75
2021/12/31 20:45:57;;;;;;;32.97;16.07;;;7.70;90.60;;;;;;5067329;28;20237;-77
2021/12/31 20:48:23;;;;;;;36.60;17.23;;;7.70;91.00;;;;;;5069901;28;20183;-76
2021/12/31 20:50:52;;;;;;;41.70;18.65;;;7.60;91.10;;;;;;5068799;28;20189;-77
2021/12/31 20:53:18;;;;;;;32.77;16.10;;;7.50;91.10;;;;;;5066715;28;20178;-76
2021/12/31 20:55:44;;;;;;;30.43;17.20;;;7.40;91.30;;;;;;5066447;28;20217;-78
2021/12/31 20:58:10;;;;;;;35.57;16.93;;;7.30;91.60;;;;;;5062391;28;20190;-78
2021/12/31 21:00:36;;;;;;;33.60;17.30;;;7.30;91.70;;;;;;5067017;28;20576;-77
2021/12/31 21:03:02;;;;;;;32.40;16.40;;;7.20;91.80;;;;;;5070020;28;20224;-78
2021/12/31 21:05:33;;;;;;;34.50;16.90;;;7.20;91.90;;;;;;5066719;28;20183;-79
2021/12/31 21:08:03;;;;;;;34.17;16.67;;;7.10;92.00;;;;;;5067630;28;20184;-78